createdAt,value
2019-04-01T00:01:17.398Z,21.70
2019-04-01T00:03:46.565Z,16.87
2019-04-01T00:06:15.883Z,19.23
2019-04-01T00:08:45.206Z,20.83
2019-04-01T00:11:14.811Z,18.43
2019-04-01T00:13:43.805Z,21.47
2019-04-01T00:16:12.733Z,23.77
2019-04-01T00:18:41.646Z,27.03
2019-04-01T00:21:10.748Z,27.87
2019-04-01T00:23:39.873Z,29.40
2019-04-01T00:26:08.834Z,29.30
2019-04-01T00:28:37.964Z,30.77
2019-04-01T00:31:06.824Z,35.13
2019-04-01T00:33:35.680Z,30.37
2019-04-01T00:36:04.690Z,32.90
2019-04-01T00:38:33.624Z,31.00
2019-04-01T00:41:02.548Z,28.30
2019-04-01T00:43:52.715Z,33.77
2019-04-01T00:46:21.960Z,39.67
2019-04-01T00:48:50.913Z,41.03
2019-04-01T00:51:20.102Z,37.93
2019-04-01T00:53:48.959Z,41.87
2019-04-01T00:56:18.100Z,43.53
2019-04-01T00:58:46.942Z,36.50
2019-04-01T01:01:16.282Z,43.10
2019-04-01T01:03:45.142Z,39.33
2019-04-01T01:06:14.372Z,41.27
2019-04-01T01:08:43.469Z,34.73
2019-04-01T01:11:12.307Z,44.50
2019-04-01T01:13:41.229Z,45.03
2019-04-01T01:16:10.450Z,44.50
2019-04-01T01:18:39.667Z,46.20
2019-04-01T01:21:08.570Z,45.67
2019-04-01T01:23:37.742Z,48.73
2019-04-01T01:26:06.645Z,46.93
2019-04-01T01:28:35.489Z,43.43
2019-04-01T01:31:04.394Z,50.83
2019-04-01T01:33:33.313Z,48.13
2019-04-01T01:36:02.154Z,52.70
2019-04-01T01:38:31.061Z,45.37
2019-04-01T01:41:00.278Z,49.40
2019-04-01T01:43:29.281Z,46.50
2019-04-01T01:45:58.121Z,44.50
2019-04-01T01:48:27.473Z,44.57
2019-04-01T01:50:56.974Z,43.43
2019-04-01T01:53:25.892Z,44.97
2019-04-01T01:55:55.060Z,46.10
2019-04-01T01:58:24.257Z,46.57
2019-04-01T02:00:55.094Z,44.10
2019-04-01T02:03:23.969Z,44.30
2019-04-01T02:05:53.182Z,43.27
2019-04-01T02:08:22.110Z,48.00
2019-04-01T02:10:50.944Z,44.20
2019-04-01T02:13:20.273Z,45.63
2019-04-01T02:15:49.671Z,46.60
2019-04-01T02:18:18.594Z,42.90
2019-04-01T02:20:47.430Z,43.63
2019-04-01T02:23:16.353Z,43.43
2019-04-01T02:25:45.539Z,44.03
2019-04-01T02:28:14.941Z,42.20
2019-04-01T02:30:43.882Z,47.03
2019-04-01T02:33:13.071Z,41.20
2019-04-01T02:35:41.911Z,46.87
2019-04-01T02:38:10.763Z,48.40
2019-04-01T02:40:39.614Z,44.03
2019-04-01T02:43:08.527Z,48.37
2019-04-01T02:45:37.465Z,53.47
2019-04-01T02:48:06.786Z,46.10
2019-04-01T02:50:36.045Z,41.73
2019-04-01T02:53:05.035Z,44.03
2019-04-01T02:55:34.389Z,46.87
2019-04-01T02:58:03.690Z,44.77
2019-04-01T03:00:32.987Z,43.87
2019-04-01T03:03:01.934Z,42.93
2019-04-01T03:05:30.788Z,40.50
2019-04-01T03:07:59.707Z,47.30
2019-04-01T03:10:28.900Z,47.97
2019-04-01T03:12:57.740Z,47.83
2019-04-01T03:15:26.842Z,47.57
2019-04-01T03:17:56.339Z,46.37
2019-04-01T03:20:25.199Z,48.30
2019-04-01T03:22:54.343Z,46.23
2019-04-01T03:25:23.358Z,47.80
2019-04-01T03:27:53.039Z,48.53
2019-04-01T03:30:21.963Z,44.30
2019-04-01T03:32:50.881Z,48.07
2019-04-01T03:35:19.790Z,49.03
2019-04-01T03:37:48.622Z,50.83
2019-04-01T03:40:17.627Z,46.43
2019-04-01T03:42:46.901Z,41.63
2019-04-01T03:45:15.975Z,42.53
2019-04-01T03:47:44.815Z,46.73
2019-04-01T03:50:13.810Z,46.10
2019-04-01T03:52:43.074Z,46.27
2019-04-01T03:55:12.185Z,50.03
2019-04-01T03:57:41.153Z,53.30
2019-04-01T04:00:10.515Z,48.73
2019-04-01T04:02:39.369Z,46.50
2019-04-01T04:05:08.391Z,47.40
2019-04-01T04:07:37.365Z,48.03
2019-04-01T04:10:06.612Z,45.17
2019-04-01T04:12:35.462Z,45.30
2019-04-01T04:15:04.649Z,45.30
2019-04-01T04:17:33.830Z,43.87
2019-04-01T04:20:02.822Z,47.10
2019-04-01T04:22:31.682Z,42.37
2019-04-01T04:25:00.683Z,47.53
2019-04-01T04:27:29.678Z,46.83
2019-04-01T04:29:58.523Z,47.97
2019-04-01T04:32:27.385Z,47.73
2019-04-01T04:34:57.381Z,47.43
2019-04-01T04:37:26.804Z,46.20
2019-04-01T04:39:55.798Z,46.07
2019-04-01T04:42:24.779Z,49.10
2019-04-01T04:44:53.926Z,44.87
2019-04-01T04:47:23.738Z,53.77
2019-04-01T04:49:53.410Z,44.23
2019-04-01T04:52:22.267Z,43.17
2019-04-01T04:54:51.119Z,47.17
2019-04-01T04:57:20.607Z,46.53
2019-04-01T04:59:49.622Z,46.40
2019-04-01T05:02:18.570Z,45.73
2019-04-01T05:04:47.789Z,46.07
2019-04-01T05:07:16.668Z,40.63
2019-04-01T05:09:45.626Z,52.60
2019-04-01T05:12:14.971Z,46.57
2019-04-01T05:14:43.839Z,48.00
2019-04-01T05:17:13.059Z,46.07
2019-04-01T05:19:42.055Z,44.80
2019-04-01T05:22:12.010Z,53.27
2019-04-01T05:24:41.487Z,49.30
2019-04-01T05:27:11.372Z,47.07
2019-04-01T05:29:42.216Z,53.60
2019-04-01T05:32:13.816Z,49.13
2019-04-01T05:34:45.277Z,47.03
2019-04-01T05:37:14.633Z,54.00
2019-04-01T05:39:43.927Z,49.07
2019-04-01T05:42:13.133Z,49.40
2019-04-01T05:44:42.633Z,51.37
2019-04-01T05:47:11.994Z,51.57
2019-04-01T05:49:40.947Z,51.10
2019-04-01T05:52:10.233Z,57.93
2019-04-01T05:54:39.934Z,50.83
2019-04-01T05:57:09.206Z,55.30
2019-04-01T05:59:38.538Z,55.10
2019-04-01T06:02:07.651Z,61.07
2019-04-01T06:04:36.946Z,55.50
2019-04-01T06:07:05.951Z,53.60
2019-04-01T06:09:35.244Z,66.50
2019-04-01T06:12:04.640Z,62.43
2019-04-01T06:14:34.052Z,67.10
2019-04-01T06:17:03.359Z,65.33
2019-04-01T06:19:32.418Z,64.03
2019-04-01T06:22:01.558Z,65.40
2019-04-01T06:24:31.342Z,57.30
2019-04-01T06:27:00.414Z,61.37
2019-04-01T06:29:29.915Z,70.20
2019-04-01T06:31:59.297Z,66.00
2019-04-01T06:34:28.234Z,61.50
2019-04-01T06:36:57.216Z,63.17
2019-04-01T06:39:26.181Z,56.00
2019-04-01T06:41:55.171Z,60.30
2019-04-01T06:44:24.420Z,69.10
2019-04-01T06:46:53.345Z,65.93
2019-04-01T06:49:23.631Z,64.23
2019-04-01T06:51:52.562Z,66.60
2019-04-01T06:54:21.670Z,60.03
2019-04-01T06:56:50.589Z,60.60
2019-04-01T06:59:19.815Z,64.03
2019-04-01T07:01:49.013Z,66.10
2019-04-01T07:04:18.042Z,61.10
2019-04-01T07:06:47.612Z,60.23
2019-04-01T07:09:16.546Z,62.23
2019-04-01T07:11:45.636Z,61.30
2019-04-01T07:14:15.225Z,62.23
2019-04-01T07:16:44.218Z,59.77
2019-04-01T07:19:13.210Z,63.43
2019-04-01T07:21:43.003Z,62.97
2019-04-01T07:24:12.217Z,55.03
2019-04-01T07:26:41.153Z,64.57
2019-04-01T07:29:10.266Z,63.03
2019-04-01T07:31:40.223Z,63.53
2019-04-01T07:34:09.297Z,58.57
2019-04-01T07:36:38.924Z,57.67
2019-04-01T07:39:07.861Z,60.90
2019-04-01T07:41:37.107Z,62.87
2019-04-01T07:44:06.122Z,64.77
2019-04-01T07:46:35.110Z,62.23
2019-04-01T07:49:04.229Z,57.70
2019-04-01T07:51:33.586Z,63.80
2019-04-01T07:54:02.589Z,55.40
2019-04-01T07:56:31.518Z,53.10
2019-04-01T07:59:00.486Z,51.37
2019-04-01T08:01:29.665Z,50.50
2019-04-01T08:03:58.971Z,51.07
2019-04-01T08:06:28.266Z,53.40
2019-04-01T08:08:57.679Z,53.60
2019-04-01T08:11:26.866Z,53.57
2019-04-01T08:13:56.063Z,54.20
2019-04-01T08:16:25.371Z,51.70
2019-04-01T08:18:54.381Z,50.80
2019-04-01T08:21:23.377Z,50.87
2019-04-01T08:23:52.701Z,56.10
2019-04-01T08:26:21.771Z,49.07
2019-04-01T08:28:51.051Z,50.63
2019-04-01T08:31:20.352Z,51.17
2019-04-01T08:33:50.376Z,53.57
2019-04-01T08:36:20.086Z,51.37
2019-04-01T08:38:49.048Z,49.20
2019-04-01T08:41:18.062Z,47.57
2019-04-01T08:43:47.001Z,53.63
2019-04-01T08:46:16.398Z,47.67
2019-04-01T08:48:45.661Z,49.63
2019-04-01T08:51:15.158Z,47.90
2019-04-01T08:53:44.800Z,49.23
2019-04-01T08:56:13.794Z,44.27
2019-04-01T08:58:42.717Z,47.20
2019-04-01T09:01:11.963Z,48.50
2019-04-01T09:03:40.924Z,43.23
2019-04-01T09:06:10.533Z,49.10
2019-04-01T09:08:39.961Z,46.30
2019-04-01T09:11:09.868Z,44.90
2019-04-01T09:13:39.766Z,43.00
2019-04-01T09:16:08.781Z,48.60
2019-04-01T09:18:37.913Z,46.87
2019-04-01T09:21:07.186Z,45.67
2019-04-01T09:23:36.389Z,41.80
2019-04-01T09:26:05.398Z,44.70
2019-04-01T09:28:34.395Z,50.13
2019-04-01T09:31:03.674Z,43.63
2019-04-01T09:33:32.606Z,45.50
2019-04-01T09:36:01.461Z,45.30
2019-04-01T09:38:30.646Z,166.97
2019-04-01T09:40:59.677Z,49.87
2019-04-01T09:43:28.949Z,121.00
2019-04-01T09:45:57.802Z,54.73
2019-04-01T09:48:27.443Z,53.17
2019-04-01T09:50:56.745Z,46.30
2019-04-01T09:53:25.674Z,45.77
2019-04-01T09:55:54.945Z,45.60
2019-04-01T09:58:23.820Z,44.13
2019-04-01T10:00:53.356Z,44.20
2019-04-01T10:03:22.903Z,44.67
2019-04-01T10:05:51.920Z,45.00
2019-04-01T10:08:20.884Z,44.37
2019-04-01T10:10:49.829Z,43.40
2019-04-01T10:13:18.694Z,42.60
2019-04-01T10:15:47.621Z,42.17
2019-04-01T10:18:16.902Z,44.90
2019-04-01T10:20:45.914Z,43.10
2019-04-01T10:23:14.838Z,44.00
2019-04-01T10:25:43.858Z,42.03
2019-04-01T10:28:13.085Z,43.07
2019-04-01T10:30:42.164Z,41.77
2019-04-01T10:33:11.161Z,44.53
2019-04-01T10:35:40.098Z,45.03
2019-04-01T10:38:09.100Z,46.00
2019-04-01T10:40:38.098Z,46.60
2019-04-01T10:43:07.022Z,43.70
2019-04-01T10:45:36.049Z,48.37
2019-04-01T10:48:05.046Z,47.07
2019-04-01T10:50:34.167Z,41.33
2019-04-01T10:53:03.050Z,43.70
2019-04-01T10:55:32.183Z,43.70
2019-04-01T10:58:01.073Z,44.37
2019-04-01T11:00:30.109Z,43.30
2019-04-01T11:02:59.096Z,41.87
2019-04-01T11:05:28.119Z,41.90
2019-04-01T11:07:57.095Z,39.80
2019-04-01T11:10:26.141Z,43.47
2019-04-01T11:12:55.018Z,39.63
2019-04-01T11:15:24.366Z,42.30
2019-04-01T11:17:53.302Z,42.00
2019-04-01T11:20:22.797Z,45.13
2019-04-01T11:22:51.686Z,46.40
2019-04-01T11:25:20.954Z,41.87
2019-04-01T11:27:49.910Z,41.20
2019-04-01T11:30:19.250Z,40.37
2019-04-01T11:32:48.309Z,41.80
2019-04-01T11:35:17.364Z,40.00
2019-04-01T11:37:46.766Z,36.77
2019-04-01T11:40:15.957Z,43.27
2019-04-01T11:42:45.082Z,40.57
2019-04-01T11:45:14.884Z,41.67
2019-04-01T11:47:43.916Z,35.73
2019-04-01T11:50:13.302Z,40.60
2019-04-01T11:52:42.372Z,39.93
2019-04-01T11:55:11.707Z,38.00
2019-04-01T11:57:41.085Z,39.77
2019-04-01T12:00:15.216Z,35.50
2019-04-01T12:02:46.043Z,38.80
2019-04-01T12:05:15.602Z,39.90
2019-04-01T12:07:44.629Z,43.13
2019-04-01T12:10:13.697Z,45.23
2019-04-01T12:12:42.890Z,39.10
2019-04-01T12:15:12.744Z,43.63
2019-04-01T12:17:42.620Z,47.60
2019-04-01T12:20:11.752Z,37.23
2019-04-01T12:22:45.224Z,36.57
2019-04-01T12:25:12.156Z,40.10
2019-04-01T12:27:41.505Z,39.00
2019-04-01T12:30:10.967Z,41.23
2019-04-01T12:32:39.984Z,43.00
2019-04-01T12:35:09.014Z,42.60
2019-04-01T12:37:38.374Z,40.13
2019-04-01T12:40:07.754Z,38.03
2019-04-01T12:42:36.781Z,43.10
2019-04-01T12:45:10.399Z,42.00
2019-04-01T12:47:42.919Z,42.50
2019-04-01T12:50:10.817Z,36.03
2019-04-01T12:52:40.515Z,37.83
2019-04-01T12:55:09.822Z,38.20
2019-04-01T12:57:38.755Z,45.30
2019-04-01T13:00:09.877Z,36.77
2019-04-01T13:02:38.906Z,38.00
2019-04-01T13:05:08.207Z,41.43
2019-04-01T13:07:37.259Z,36.27
2019-04-01T13:10:06.523Z,36.80
2019-04-01T13:12:35.469Z,41.40
2019-04-01T13:15:05.371Z,40.10
2019-04-01T13:17:34.641Z,44.63
2019-04-01T13:20:03.943Z,39.50
2019-04-01T13:22:33.240Z,42.03
2019-04-01T13:25:05.441Z,35.87
2019-04-01T13:27:32.674Z,34.10
2019-04-01T13:30:01.550Z,36.10
2019-04-01T13:32:30.483Z,35.03
2019-04-01T13:34:59.415Z,38.87
2019-04-01T13:37:28.338Z,34.50
2019-04-01T13:39:57.282Z,38.80
2019-04-01T13:42:26.291Z,37.50
2019-04-01T13:44:55.391Z,34.13
2019-04-01T13:47:24.245Z,32.53
2019-04-01T13:49:53.204Z,32.70
2019-04-01T13:52:22.240Z,38.17
2019-04-01T13:54:51.299Z,36.73
2019-04-01T13:57:20.510Z,40.50
2019-04-01T13:59:51.662Z,39.10
2019-04-01T14:02:20.382Z,36.53
2019-04-01T14:04:49.314Z,36.60
2019-04-01T14:07:18.518Z,38.10
2019-04-01T14:09:48.190Z,35.00
2019-04-01T14:12:17.298Z,36.93
2019-04-01T14:14:46.611Z,38.40
2019-04-01T14:17:15.550Z,36.80
2019-04-01T14:19:44.456Z,37.63
2019-04-01T14:22:13.297Z,34.40
2019-04-01T14:24:42.703Z,34.60
2019-04-01T14:27:12.512Z,43.00
2019-04-01T14:29:41.801Z,33.80
2019-04-01T14:32:11.510Z,33.97
2019-04-01T14:34:40.708Z,35.60
2019-04-01T14:37:10.165Z,37.77
2019-04-01T14:39:39.616Z,37.57
2019-04-01T14:42:08.699Z,38.30
2019-04-01T14:44:37.821Z,33.90
2019-04-01T14:47:09.039Z,35.70
2019-04-01T14:49:37.497Z,35.90
2019-04-01T14:52:06.961Z,34.47
2019-04-01T14:54:36.256Z,36.43
2019-04-01T14:57:05.276Z,42.17
2019-04-01T14:59:34.165Z,30.97
2019-04-01T15:02:03.819Z,29.50
2019-04-01T15:04:33.138Z,38.33
2019-04-01T15:07:02.022Z,34.60
2019-04-01T15:09:31.254Z,32.27
2019-04-01T15:12:00.257Z,37.30
2019-04-01T15:14:29.188Z,38.60
2019-04-01T15:16:58.422Z,37.53
2019-04-01T15:19:27.476Z,32.90
2019-04-01T15:21:56.478Z,33.83
2019-04-01T15:24:25.802Z,31.67
2019-04-01T15:26:55.506Z,32.30
2019-04-01T15:29:24.366Z,31.57
2019-04-01T15:31:54.524Z,36.80
2019-04-01T15:34:23.731Z,32.77
2019-04-01T15:36:53.058Z,36.40
2019-04-01T15:39:22.330Z,29.03
2019-04-01T15:41:51.206Z,40.27
2019-04-01T15:44:20.419Z,29.03
2019-04-01T15:46:49.607Z,32.10
2019-04-01T15:49:19.113Z,33.97
2019-04-01T15:51:48.441Z,34.10
2019-04-01T15:54:17.315Z,31.80
2019-04-01T15:56:46.214Z,29.23
2019-04-01T15:59:15.598Z,32.27
2019-04-01T16:01:44.598Z,31.77
2019-04-01T16:04:16.324Z,34.00
2019-04-01T16:06:44.221Z,31.80
2019-04-01T16:09:13.523Z,29.10
2019-04-01T16:11:42.480Z,33.30
2019-04-01T16:14:11.617Z,32.40
2019-04-01T16:16:40.638Z,37.30
2019-04-01T16:19:09.554Z,27.13
2019-04-01T16:21:38.485Z,35.03
2019-04-01T16:24:10.876Z,36.30
2019-04-01T16:26:38.318Z,27.90
2019-04-01T16:29:07.522Z,33.03
2019-04-01T16:31:36.446Z,27.30
2019-04-01T16:34:05.448Z,27.93
2019-04-01T16:36:34.706Z,34.17
2019-04-01T16:39:06.631Z,30.33
2019-04-01T16:41:36.154Z,25.23
2019-04-01T16:44:05.578Z,27.13
2019-04-01T16:46:34.602Z,29.70
2019-04-01T16:49:03.874Z,27.00
2019-04-01T16:51:32.890Z,29.00
2019-04-01T16:54:02.195Z,29.10
2019-04-01T16:56:31.142Z,32.07
2019-04-01T16:59:00.267Z,27.57
2019-04-01T17:01:29.319Z,34.50
2019-04-01T17:03:58.271Z,30.30
2019-04-01T17:06:27.385Z,29.20
2019-04-01T17:08:56.249Z,30.27
2019-04-01T17:11:25.194Z,36.50
2019-04-01T17:13:55.524Z,29.27
2019-04-01T17:16:24.644Z,34.50
2019-04-01T17:18:53.566Z,25.40
2019-04-01T17:21:22.544Z,29.07
2019-04-01T17:23:51.551Z,26.80
2019-04-01T17:26:20.425Z,24.30
2019-04-01T17:28:49.433Z,33.83
2019-04-01T17:31:18.375Z,27.00
2019-04-01T17:33:47.756Z,26.70
2019-04-01T17:36:17.058Z,27.60
2019-04-01T17:38:48.146Z,31.00
2019-04-01T17:41:16.658Z,23.87
2019-04-01T17:43:45.693Z,28.07
2019-04-01T17:46:14.860Z,26.77
2019-04-01T17:48:43.798Z,31.80
2019-04-01T17:51:13.033Z,39.13
2019-04-01T17:53:41.959Z,33.10
2019-04-01T17:56:11.219Z,37.73
2019-04-01T17:58:40.085Z,32.77
2019-04-01T18:01:10.410Z,31.03
2019-04-01T18:03:39.807Z,35.80
2019-04-01T18:06:08.802Z,36.63
2019-04-01T18:08:37.907Z,33.40
2019-04-01T18:11:06.770Z,34.00
2019-04-01T18:13:36.098Z,33.30
2019-04-01T18:16:06.110Z,33.63
2019-04-01T18:18:34.978Z,30.67
2019-04-01T18:21:04.051Z,37.83
2019-04-01T18:23:33.809Z,38.57
2019-04-01T18:26:03.026Z,37.40
2019-04-01T18:28:31.970Z,34.77
2019-04-01T18:31:01.066Z,36.40
2019-04-01T18:33:30.764Z,33.37
2019-04-01T18:35:59.823Z,34.03
2019-04-01T18:38:29.097Z,37.67
2019-04-01T18:40:58.015Z,34.20
2019-04-01T18:43:28.062Z,36.37
2019-04-01T18:45:57.417Z,38.73
2019-04-01T18:48:26.370Z,32.60
2019-04-01T18:50:55.305Z,37.07
2019-04-01T18:53:24.737Z,35.80
2019-04-01T18:55:54.134Z,37.57
2019-04-01T18:58:24.310Z,36.27
2019-04-01T19:00:54.553Z,38.60
2019-04-01T19:03:24.143Z,36.50
2019-04-01T19:05:53.573Z,38.67
2019-04-01T19:08:22.641Z,46.90
2019-04-01T19:11:01.737Z,39.23
2019-04-01T19:13:22.194Z,34.30
2019-04-01T19:15:52.134Z,35.13
2019-04-01T19:18:22.420Z,36.00
2019-04-01T19:20:56.844Z,35.70
2019-04-01T19:23:22.664Z,34.93
2019-04-01T19:25:52.084Z,35.20
2019-04-01T19:28:21.169Z,38.97
2019-04-01T19:30:50.414Z,37.93
2019-04-01T19:33:19.321Z,38.80
2019-04-01T19:35:48.769Z,42.87
2019-04-01T19:38:21.126Z,37.00
2019-04-01T19:40:48.551Z,39.97
2019-04-01T19:43:17.500Z,38.53
2019-04-01T19:45:46.863Z,44.90
2019-04-01T19:48:15.846Z,39.93
2019-04-01T19:50:45.283Z,36.80
2019-04-01T19:53:14.316Z,36.10
2019-04-01T19:55:43.896Z,37.63
2019-04-01T19:58:13.082Z,36.07
2019-04-01T20:00:42.805Z,33.67
2019-04-01T20:03:12.194Z,35.40
2019-04-01T20:05:41.494Z,33.30
2019-04-01T20:08:13.904Z,36.70
2019-04-01T20:10:41.632Z,35.93
2019-04-01T20:13:10.758Z,39.23
2019-04-01T20:15:40.347Z,37.23
2019-04-01T20:18:10.450Z,46.90
2019-04-01T20:20:41.462Z,41.30
2019-04-01T20:23:10.073Z,39.83
2019-04-01T20:25:38.998Z,43.37
2019-04-01T20:28:08.274Z,36.87
2019-04-01T20:30:38.146Z,40.43
2019-04-01T20:33:17.642Z,45.40
2019-04-01T20:35:38.344Z,38.10
2019-04-01T20:38:07.618Z,37.43
2019-04-01T20:40:36.919Z,41.50
2019-04-01T20:43:05.962Z,36.33
2019-04-01T20:45:34.919Z,36.60
2019-04-01T20:48:04.503Z,39.40
2019-04-01T20:50:33.818Z,36.60
2019-04-01T20:53:02.775Z,42.53
2019-04-01T20:55:31.789Z,34.77
2019-04-01T20:58:00.663Z,36.30
2019-04-01T21:00:29.893Z,35.40
2019-04-01T21:02:59.190Z,35.53
2019-04-01T21:05:28.049Z,38.27
2019-04-01T21:07:57.174Z,40.20
2019-04-01T21:10:26.475Z,35.03
2019-04-01T21:12:55.393Z,40.13
2019-04-01T21:15:24.621Z,34.67
2019-04-01T21:17:53.492Z,36.00
2019-04-01T21:20:22.427Z,38.00
2019-04-01T21:22:51.669Z,38.87
2019-04-01T21:25:20.690Z,36.03
2019-04-01T21:27:49.614Z,38.27
2019-04-01T21:30:20.130Z,39.37
2019-04-01T21:32:49.529Z,39.73
2019-04-01T21:35:18.566Z,38.97
2019-04-01T21:37:47.758Z,40.77
2019-04-01T21:40:16.791Z,37.40
2019-04-01T21:42:45.730Z,36.50
2019-04-01T21:45:16.277Z,43.43
2019-04-01T21:47:45.611Z,34.23
2019-04-01T21:50:15.386Z,31.40
2019-04-01T21:52:44.641Z,34.13
2019-04-01T21:55:13.653Z,35.23
2019-04-01T21:57:42.514Z,36.80
2019-04-01T22:00:14.051Z,33.83
2019-04-01T22:02:44.061Z,34.23
2019-04-01T22:05:13.967Z,34.47
2019-04-01T22:07:42.910Z,30.87
2019-04-01T22:10:12.066Z,33.30
2019-04-01T22:12:40.938Z,36.37
2019-04-01T22:15:09.990Z,33.90
2019-04-01T22:17:38.829Z,33.83
2019-04-01T22:20:07.995Z,40.50
2019-04-01T22:22:37.344Z,39.57
2019-04-01T22:25:06.622Z,43.67
2019-04-01T22:27:35.932Z,36.63
2019-04-01T22:30:06.601Z,32.97
2019-04-01T22:32:35.773Z,37.67
2019-04-01T22:35:05.409Z,37.10
2019-04-01T22:37:34.470Z,35.13
2019-04-01T22:40:03.551Z,35.93
2019-04-01T22:42:32.701Z,32.70
2019-04-01T22:45:01.685Z,39.70
2019-04-01T22:47:30.558Z,33.77
2019-04-01T22:49:59.755Z,36.17
2019-04-01T22:52:28.670Z,32.63
2019-04-01T22:54:58.270Z,34.40
2019-04-01T22:57:28.063Z,31.63
2019-04-01T22:59:56.926Z,35.80
2019-04-01T23:02:26.130Z,33.30
2019-04-01T23:04:55.334Z,33.80
2019-04-01T23:07:24.336Z,35.27
2019-04-01T23:09:53.177Z,36.83
2019-04-01T23:12:22.771Z,35.27
2019-04-01T23:14:51.886Z,32.13
2019-04-01T23:17:20.822Z,33.47
2019-04-01T23:19:49.774Z,35.17
2019-04-01T23:22:18.899Z,34.57
2019-04-01T23:24:47.834Z,35.87
2019-04-01T23:27:17.094Z,30.07
2019-04-01T23:29:45.947Z,37.40
2019-04-01T23:32:16.275Z,35.47
2019-04-01T23:34:46.017Z,36.27
2019-04-01T23:37:15.113Z,36.87
2019-04-01T23:39:44.070Z,35.70
2019-04-01T23:42:13.203Z,39.30
2019-04-01T23:44:42.054Z,35.27
2019-04-01T23:47:10.911Z,32.10
2019-04-01T23:49:40.439Z,34.17
2019-04-01T23:52:09.701Z,37.23
2019-04-01T23:54:38.694Z,37.20
2019-04-01T23:57:07.553Z,34.10
2019-04-01T23:59:36.466Z,38.40
